DTTZ/TOE METAR and TAF weather

Enter ICAO airport designator
Station Type Date Time Source
DTTZ METAR 2019/08/24 21:00 UTC NOAA

DTTZ 242100Z 10016KT 9999 FEW033 31/20 Q1013 NOSIG


Station Type Date Time Source
DTTZ Decoded METAR 2019/08/24 21:00 UTC NOAA

Station name not available
Aug 24, 2019 - 05:00 PM EDT / 2019.08.24 2100 UTC
Wind: from the E (100 degrees) at 18 MPH (16 KT):0
Visibility: greater than 7 mile(s):0
Sky conditions: mostly clear
Temperature: 87 F (31 C)
Dew Point: 68 F (20 C)
Relative Humidity: 52%
Pressure (altimeter): 29.91 in. Hg (1013 hPa)
ob: DTTZ 242100Z 10016KT 9999 FEW033 31/20 Q1013 NOSIG
cycle: 21

Station Type Date Time Source
DTTZ TAF 2019/08/24 18:45 UTC NOAA

TAF DTTZ 241700Z 2418/2518 10015KT 9999 FEW033

Example: see airport list